MSC Divina — 3FFA5 — position and weather

sailwx.info

Track history (hours):
 
Tides and Currents Weather Stations Pressure Air Temp Water Temp Dewpoint Dewpoint Depression Visibility Wind Speed Wind Dir Waves Ship Positions

MSC Divina

Last reported at 2017-Feb-22 21:30 UTC. Time now 2017-Feb-24 08:20 UTC.
Position N 18°36' W 066°15'.

Length 333 m; draft 8.6 m.

Type: Passenger vessel. MMSI: 373178000.

Date/timePositionNaut miles runAvg speedWind from/ knotsBaromVisibWave heightAir tempDewpointWater temp
2017-Feb-22 21:30N 18°36' W 066°15'1210.2
2017-Feb-22 20:22N 18°28' W 066°07'0 0.0
2017-Feb-22 19:31N 18°28' W 066°07'0 0.0
2017-Feb-22 18:31N 18°28' W 066°07'0 0.0
2017-Feb-22 17:31N 18°28' W 066°07'0 0.0
2017-Feb-22 16:31N 18°28' W 066°07'0 0.0
2017-Feb-22 15:31N 18°28' W 066°07'0 0.0
2017-Feb-22 14:31N 18°28' W 066°07'0 0.0
2017-Feb-22 13:31N 18°28' W 066°07'0 0.0
2017-Feb-22 12:31N 18°28' W 066°07'0 0.4
2017-Feb-22 11:33N 18°27' W 066°07'8 8.1
2017-Feb-22 10:33N 18°34' W 066°02'6214.4
2017-Feb-22 06:13N 18°13' W 065°01'1014.6
2017-Feb-22 05:33N 18°10' W 064°51'7414.8
2017-Feb-22 00:32N 18°03' W 063°33'1514.5
2017-Feb-21 23:28N 18°01' W 063°17'13 1.2
2017-Feb-21 12:12N 18°01' W 063°03'911.0
2017-Feb-21 11:24N 18°02' W 063°12'1413.7
2017-Feb-21 10:23N 18°10' W 063°24'1214.1
2017-Feb-21 09:31N 18°18' W 063°34'3315.0
2017-Feb-21 07:20N 18°38' W 064°01'1515.2
2017-Feb-21 06:19N 18°48' W 064°14'  
2017-Feb-19 01:33N 25°53' W 079°49'1918.7
2017-Feb-19 00:33N 25°46' W 080°07'3 2.8
2017-Feb-18 23:32N 25°47' W 080°10'0 0.0
2017-Feb-18 22:32N 25°47' W 080°10'0 0.0
2017-Feb-18 21:32N 25°47' W 080°10'0 0.0
2017-Feb-18 20:31N 25°47' W 080°10'0 0.0
2017-Feb-18 19:32N 25°47' W 080°10'0 0.0
2017-Feb-18 18:32N 25°47' W 080°10'0 0.0
2017-Feb-18 17:32N 25°47' W 080°10'0 0.0
2017-Feb-18 16:32N 25°47' W 080°10'0 0.0
2017-Feb-18 15:32N 25°47' W 080°10'0 0.0
2017-Feb-18 14:32N 25°47' W 080°10'0 0.0
2017-Feb-18 13:32N 25°47' W 080°10'0 0.0
2017-Feb-18 12:32N 25°47' W 080°10'0 0.0
2017-Feb-18 11:32N 25°47' W 080°10'0 0.1
2017-Feb-18 10:33N 25°47' W 080°10'9 8.6
2017-Feb-18 09:34N 25°47' W 080°01'1616.1
2017-Feb-18 08:33N 25°55' W 079°45'1717.0
2017-Feb-18 07:33N 26°03' W 079°29'21 0.9
2017-Feb-17 06:27N 25°42' W 079°24'51916.8
2017-Feb-15 23:33N 20°33' W 086°57'2 2.2
2017-Feb-15 22:33N 20°31' W 086°57'0 0.0
2017-Feb-15 21:33N 20°31' W 086°57'0 0.0
2017-Feb-15 20:32N 20°31' W 086°57'0 0.0
2017-Feb-15 19:32N 20°31' W 086°57'0 0.0
2017-Feb-15 18:29N 20°31' W 086°57'0 0.0
2017-Feb-15 17:32N 20°31' W 086°57'0 0.0
2017-Feb-15 16:31N 20°31' W 086°57'0 0.0
2017-Feb-15 15:31N 20°31' W 086°57'0 0.0
2017-Feb-15 14:31N 20°31' W 086°57'6 6.5
2017-Feb-15 13:33N 20°36' W 086°55'  
Track history (hours):
 
Tides and Currents Weather Stations Pressure Air Temp Water Temp Dewpoint Dewpoint Depression Visibility Wind Speed Wind Dir Waves Ship Positions

MSC Divina

Last reported at 2017-Feb-22 21:30 UTC. Time now 2017-Feb-24 08:20 UTC.
Position N 18°36' W 066°15'.

Length 333 m; draft 8.6 m.

Type: Passenger vessel. MMSI: 373178000.

Date/timePositionNaut miles runAvg speedWind from/ knotsBaromVisibWave heightAir tempDewpointWater temp
2017-Feb-22 21:30N 18°36' W 066°15'1210.2
2017-Feb-22 20:22N 18°28' W 066°07'0 0.0
2017-Feb-22 19:31N 18°28' W 066°07'0 0.0
2017-Feb-22 18:31N 18°28' W 066°07'0 0.0
2017-Feb-22 17:31N 18°28' W 066°07'0 0.0
2017-Feb-22 16:31N 18°28' W 066°07'0 0.0
2017-Feb-22 15:31N 18°28' W 066°07'0 0.0
2017-Feb-22 14:31N 18°28' W 066°07'0 0.0
2017-Feb-22 13:31N 18°28' W 066°07'0 0.0
2017-Feb-22 12:31N 18°28' W 066°07'0 0.4
2017-Feb-22 11:33N 18°27' W 066°07'8 8.1
2017-Feb-22 10:33N 18°34' W 066°02'6214.4
2017-Feb-22 06:13N 18°13' W 065°01'1014.6
2017-Feb-22 05:33N 18°10' W 064°51'7414.8
2017-Feb-22 00:32N 18°03' W 063°33'1514.5
2017-Feb-21 23:28N 18°01' W 063°17'13 1.2
2017-Feb-21 12:12N 18°01' W 063°03'911.0
2017-Feb-21 11:24N 18°02' W 063°12'1413.7
2017-Feb-21 10:23N 18°10' W 063°24'1214.1
2017-Feb-21 09:31N 18°18' W 063°34'3315.0
2017-Feb-21 07:20N 18°38' W 064°01'1515.2
2017-Feb-21 06:19N 18°48' W 064°14'  
2017-Feb-19 01:33N 25°53' W 079°49'1918.7
2017-Feb-19 00:33N 25°46' W 080°07'3 2.8
2017-Feb-18 23:32N 25°47' W 080°10'0 0.0
2017-Feb-18 22:32N 25°47' W 080°10'0 0.0
2017-Feb-18 21:32N 25°47' W 080°10'0 0.0
2017-Feb-18 20:31N 25°47' W 080°10'0 0.0
2017-Feb-18 19:32N 25°47' W 080°10'0 0.0
2017-Feb-18 18:32N 25°47' W 080°10'0 0.0
2017-Feb-18 17:32N 25°47' W 080°10'0 0.0
2017-Feb-18 16:32N 25°47' W 080°10'0 0.0
2017-Feb-18 15:32N 25°47' W 080°10'0 0.0
2017-Feb-18 14:32N 25°47' W 080°10'0 0.0
2017-Feb-18 13:32N 25°47' W 080°10'0 0.0
2017-Feb-18 12:32N 25°47' W 080°10'0 0.0
2017-Feb-18 11:32N 25°47' W 080°10'0 0.1
2017-Feb-18 10:33N 25°47' W 080°10'9 8.6
2017-Feb-18 09:34N 25°47' W 080°01'1616.1
2017-Feb-18 08:33N 25°55' W 079°45'1717.0
2017-Feb-18 07:33N 26°03' W 079°29'21 0.9
2017-Feb-17 06:27N 25°42' W 079°24'51916.8
2017-Feb-15 23:33N 20°33' W 086°57'2 2.2
2017-Feb-15 22:33N 20°31' W 086°57'0 0.0
2017-Feb-15 21:33N 20°31' W 086°57'0 0.0
2017-Feb-15 20:32N 20°31' W 086°57'0 0.0
2017-Feb-15 19:32N 20°31' W 086°57'0 0.0
2017-Feb-15 18:29N 20°31' W 086°57'0 0.0
2017-Feb-15 17:32N 20°31' W 086°57'0 0.0
2017-Feb-15 16:31N 20°31' W 086°57'0 0.0
2017-Feb-15 15:31N 20°31' W 086°57'0 0.0
2017-Feb-15 14:31N 20°31' W 086°57'6 6.5
2017-Feb-15 13:33N 20°36' W 086°55'  

Dump ship's entire track history